createdAt,value
2023-02-12T00:01:10.307Z,99406.50
2023-02-12T00:03:39.327Z,99413.16
2023-02-12T00:06:10.010Z,99421.78
2023-02-12T00:08:39.677Z,99427.75
2023-02-12T00:11:12.856Z,99407.16
2023-02-12T00:13:41.226Z,99405.00
2023-02-12T00:16:11.612Z,99399.88
2023-02-12T00:18:40.084Z,99410.19
2023-02-12T00:21:09.889Z,99414.00
2023-02-12T00:23:39.339Z,99408.16
2023-02-12T00:26:08.221Z,99417.34
2023-02-12T00:28:36.961Z,99418.78
2023-02-12T00:31:09.332Z,99414.31
2023-02-12T00:33:37.979Z,99402.41
2023-02-12T00:36:06.752Z,99411.97
2023-02-12T00:38:36.590Z,99400.47
2023-02-12T00:41:05.262Z,99404.78
2023-02-12T00:43:33.388Z,99413.09
2023-02-12T00:46:02.650Z,99410.41
2023-02-12T00:48:30.835Z,99409.41
2023-02-12T00:50:58.969Z,99421.97
2023-02-12T00:53:29.125Z,99419.44
2023-02-12T00:55:58.704Z,99424.13
2023-02-12T00:58:27.159Z,99425.81
2023-02-12T01:00:56.028Z,99422.25
2023-02-12T01:03:25.076Z,99425.16
2023-02-12T01:05:53.951Z,99426.69
2023-02-12T01:08:22.593Z,99425.25
2023-02-12T01:10:59.738Z,99427.88
2023-02-12T01:13:30.658Z,99423.31
2023-02-12T01:16:11.006Z,99420.44
2023-02-12T01:18:40.086Z,99421.41
2023-02-12T01:21:13.117Z,99431.88
2023-02-12T01:23:41.482Z,99441.75
2023-02-12T01:26:12.246Z,99438.66
2023-02-12T01:28:40.792Z,99450.59
2023-02-12T01:31:12.062Z,99450.50
2023-02-12T01:33:40.319Z,99443.31
2023-02-12T01:36:09.661Z,99454.72
2023-02-12T01:38:37.806Z,99458.41
2023-02-12T01:41:07.157Z,99453.63
2023-02-12T01:43:38.099Z,99475.03
2023-02-12T01:46:07.106Z,99462.75
2023-02-12T01:48:38.182Z,99469.44
2023-02-12T01:51:09.495Z,99465.09
2023-02-12T01:53:43.072Z,99477.56
2023-02-12T01:56:11.535Z,99465.72
2023-02-12T01:58:44.078Z,99472.84
2023-02-12T02:01:16.824Z,99477.75
2023-02-12T02:03:48.668Z,99483.22
2023-02-12T02:06:22.410Z,99487.94
2023-02-12T02:08:51.200Z,99488.00
2023-02-12T02:11:36.580Z,99486.50
2023-02-12T02:14:25.956Z,99488.34
2023-02-12T02:17:02.708Z,99493.97
2023-02-12T02:19:45.525Z,99498.34
2023-02-12T02:22:27.912Z,99516.59
2023-02-12T02:25:23.141Z,99518.28
2023-02-12T02:28:03.624Z,99531.25
2023-02-12T02:30:45.568Z,99533.28
2023-02-12T02:33:34.452Z,99541.78
2023-02-12T02:36:15.635Z,99544.84
2023-02-12T02:38:49.683Z,99552.84
2023-02-12T02:41:23.890Z,99553.47
2023-02-12T02:43:53.663Z,99563.16
2023-02-12T02:46:29.094Z,99559.69
2023-02-12T02:49:02.225Z,99554.69
2023-02-12T02:51:34.668Z,99559.50
2023-02-12T02:54:08.810Z,99562.28
2023-02-12T02:56:40.434Z,99547.72
2023-02-12T02:59:12.872Z,99558.63
2023-02-12T03:01:45.328Z,99574.44
2023-02-12T03:04:20.853Z,99584.13
2023-02-12T03:06:55.818Z,99585.81
2023-02-12T03:09:28.233Z,99584.91
2023-02-12T03:12:01.470Z,99588.16
2023-02-12T03:14:33.546Z,99588.34
2023-02-12T03:17:08.029Z,99595.31
2023-02-12T03:19:41.121Z,99597.00
2023-02-12T03:22:13.023Z,99611.00
2023-02-12T03:24:45.918Z,99619.13
2023-02-12T03:27:19.367Z,99620.81
2023-02-12T03:29:48.015Z,99612.53
2023-02-12T03:32:32.340Z,99610.78
2023-02-12T03:35:11.099Z,99617.75
2023-02-12T03:37:45.030Z,99631.69
2023-02-12T03:40:19.868Z,99633.25
2023-02-12T03:42:56.621Z,99628.59
2023-02-12T03:45:35.424Z,99628.63
2023-02-12T03:48:12.562Z,99645.59
2023-02-12T03:50:48.039Z,99650.44
2023-02-12T03:53:16.286Z,99645.53
2023-02-12T03:55:49.183Z,99652.66
2023-02-12T03:58:23.475Z,99662.84
2023-02-12T04:00:52.590Z,99674.22
2023-02-12T04:03:22.514Z,99673.97
2023-02-12T04:05:50.615Z,99678.84
2023-02-12T04:08:18.773Z,99689.75
2023-02-12T04:10:57.766Z,99689.94
2023-02-12T04:13:34.592Z,99691.78
2023-02-12T04:16:13.359Z,99694.78
2023-02-12T04:18:46.035Z,99705.78
2023-02-12T04:21:26.923Z,99712.03
2023-02-12T04:24:07.418Z,99721.66
2023-02-12T04:26:43.055Z,99721.75
2023-02-12T04:29:20.538Z,99727.91
2023-02-12T04:31:52.152Z,99725.84
2023-02-12T04:34:29.314Z,99728.66
2023-02-12T04:37:00.731Z,99734.31
2023-02-12T04:39:32.490Z,99741.81
2023-02-12T04:42:01.806Z,99739.78
2023-02-12T04:44:32.638Z,99746.03
2023-02-12T04:47:01.377Z,99747.66
2023-02-12T04:49:31.140Z,99761.34
2023-02-12T04:51:59.455Z,99781.66
2023-02-12T04:54:27.507Z,99778.66
2023-02-12T04:56:55.684Z,99780.25
2023-02-12T04:59:23.770Z,99789.16
2023-02-12T05:01:52.195Z,99784.44
2023-02-12T05:04:21.010Z,99786.47
2023-02-12T05:06:50.502Z,99801.28
2023-02-12T05:09:20.340Z,99796.59
2023-02-12T05:11:48.509Z,99815.72
2023-02-12T05:14:16.941Z,99819.63
2023-02-12T05:16:45.097Z,99819.19
2023-02-12T05:19:13.274Z,99811.06
2023-02-12T05:21:41.580Z,99811.44
2023-02-12T05:24:11.212Z,99825.81
2023-02-12T05:26:39.327Z,99818.00
2023-02-12T05:29:07.406Z,99818.81
2023-02-12T05:31:35.884Z,99818.44
2023-02-12T05:34:04.084Z,99826.22
2023-02-12T05:36:32.203Z,99834.78
2023-02-12T05:39:01.270Z,99838.25
2023-02-12T05:41:34.966Z,99847.22
2023-02-12T05:44:03.888Z,99851.91
2023-02-12T05:46:32.844Z,99857.38
2023-02-12T05:49:01.142Z,99863.22
2023-02-12T05:51:32.269Z,99856.13
2023-02-12T05:54:03.729Z,99865.53
2023-02-12T05:56:34.820Z,99871.78
2023-02-12T05:59:05.300Z,99881.53
2023-02-12T06:01:35.192Z,99880.69
2023-02-12T06:04:04.348Z,99881.53
2023-02-12T06:06:33.686Z,99885.25
2023-02-12T06:09:01.919Z,99885.84
2023-02-12T06:11:30.128Z,99891.59
2023-02-12T06:13:59.660Z,99897.34
2023-02-12T06:16:29.016Z,99894.94
2023-02-12T06:18:58.574Z,99908.31
2023-02-12T06:21:27.809Z,99915.44
2023-02-12T06:23:56.277Z,99918.97
2023-02-12T06:26:25.644Z,99922.00
2023-02-12T06:28:54.034Z,99923.25
2023-02-12T06:31:25.724Z,99932.94
2023-02-12T06:33:55.390Z,99931.00
2023-02-12T06:36:23.798Z,99930.06
2023-02-12T06:38:52.376Z,99940.38
2023-02-12T06:41:20.995Z,99941.88
2023-02-12T06:43:49.711Z,99938.78
2023-02-12T06:46:17.846Z,99937.25
2023-02-12T06:48:47.446Z,99938.44
2023-02-12T06:51:17.441Z,99942.72
2023-02-12T06:53:46.438Z,99954.41
2023-02-12T06:56:15.053Z,99952.47
2023-02-12T06:58:45.109Z,99946.22
2023-02-12T07:01:17.749Z,99961.31
2023-02-12T07:03:50.160Z,99960.91
2023-02-12T07:06:18.822Z,99972.50
2023-02-12T07:08:47.271Z,99973.19
2023-02-12T07:11:15.680Z,99980.19
2023-02-12T07:13:44.976Z,99989.91
2023-02-12T07:16:15.919Z,99989.31
2023-02-12T07:18:45.159Z,99985.59
2023-02-12T07:21:17.009Z,99991.13
2023-02-12T07:23:50.872Z,99993.47
2023-02-12T07:26:20.672Z,99997.69
2023-02-12T07:28:49.270Z,99999.63
2023-02-12T07:31:19.783Z,100003.91
2023-02-12T07:33:48.611Z,100007.84
2023-02-12T07:36:20.067Z,100022.22
2023-02-12T07:38:48.858Z,100012.91
2023-02-12T07:41:18.934Z,100022.63
2023-02-12T07:43:49.374Z,100023.81
2023-02-12T07:46:19.948Z,100025.38
2023-02-12T07:48:48.902Z,100026.06
2023-02-12T07:51:20.045Z,100033.44
2023-02-12T07:53:49.016Z,100043.97
2023-02-12T07:56:18.990Z,100045.25
2023-02-12T07:58:48.361Z,100048.38
2023-02-12T08:01:19.485Z,100055.00
2023-02-12T08:03:48.901Z,100044.09
2023-02-12T08:06:20.347Z,100052.69
2023-02-12T08:08:48.969Z,100061.66
2023-02-12T08:11:18.941Z,100057.75
2023-02-12T08:13:47.558Z,100063.63
2023-02-12T08:16:17.659Z,100060.09
2023-02-12T08:18:46.045Z,100072.44
2023-02-12T08:21:15.525Z,100070.38
2023-02-12T08:23:46.153Z,100067.72
2023-02-12T08:26:16.946Z,100064.28
2023-02-12T08:28:47.314Z,100058.75
2023-02-12T08:31:17.816Z,100060.75
2023-02-12T08:33:46.553Z,100064.41
2023-02-12T08:36:16.444Z,100064.38
2023-02-12T08:38:47.254Z,100064.00
2023-02-12T08:41:19.284Z,100070.25
2023-02-12T08:43:49.316Z,100067.53
2023-02-12T08:46:20.068Z,100076.38
2023-02-12T08:48:48.725Z,100070.13
2023-02-12T08:51:19.199Z,100060.47
2023-02-12T08:53:50.200Z,100079.19
2023-02-12T08:56:19.348Z,100096.84
2023-02-12T08:58:47.861Z,100105.53
2023-02-12T09:01:17.906Z,100110.06
2023-02-12T09:03:47.367Z,100102.84
2023-02-12T09:06:17.045Z,100119.66
2023-02-12T09:08:45.785Z,100110.09
2023-02-12T09:11:17.700Z,100115.03
2023-02-12T09:13:47.384Z,100127.56
2023-02-12T09:16:15.851Z,100117.03
2023-02-12T09:18:45.274Z,100131.09
2023-02-12T09:21:16.701Z,100132.59
2023-02-12T09:23:45.614Z,100131.81
2023-02-12T09:26:17.370Z,100148.44
2023-02-12T09:28:45.581Z,100149.03
2023-02-12T09:31:15.967Z,100152.56
2023-02-12T09:33:44.314Z,100148.97
2023-02-12T09:36:15.903Z,100144.28
2023-02-12T09:38:48.231Z,100146.66
2023-02-12T09:41:48.237Z,100144.59
2023-02-12T09:44:22.031Z,100152.69
2023-02-12T09:46:54.802Z,100163.97
2023-02-12T09:49:39.452Z,100155.72
2023-02-12T09:52:14.604Z,100153.72
2023-02-12T09:54:45.545Z,100151.44
2023-02-12T09:57:21.397Z,100160.78
2023-02-12T09:59:55.533Z,100152.50
2023-02-12T10:02:25.394Z,100158.41
2023-02-12T10:05:01.239Z,100157.97
2023-02-12T10:07:58.121Z,100165.13
2023-02-12T10:10:40.427Z,100161.56
2023-02-12T10:13:19.972Z,100159.63
2023-02-12T10:15:54.367Z,100162.38
2023-02-12T10:18:43.943Z,100166.94
2023-02-12T10:21:28.600Z,100168.84
2023-02-12T10:24:06.993Z,100175.94
2023-02-12T10:26:41.825Z,100173.16
2023-02-12T10:29:16.345Z,100174.66
2023-02-12T10:31:48.223Z,100175.00
2023-02-12T10:34:20.610Z,100177.22
2023-02-12T10:36:50.578Z,100178.00
2023-02-12T10:39:23.700Z,100170.28
2023-02-12T10:41:59.803Z,100171.31
2023-02-12T10:44:29.521Z,100171.78
2023-02-12T10:46:57.651Z,100172.16
2023-02-12T10:49:26.104Z,100168.81
2023-02-12T10:52:02.189Z,100175.13
2023-02-12T10:54:37.069Z,100166.91
2023-02-12T10:57:13.661Z,100173.09
2023-02-12T10:59:44.615Z,100165.75
2023-02-12T11:02:25.315Z,100157.84
2023-02-12T11:04:55.313Z,100156.38
2023-02-12T11:07:24.669Z,100158.53
2023-02-12T11:09:54.886Z,100156.09
2023-02-12T11:12:33.550Z,100161.97
2023-02-12T11:15:05.723Z,100157.56
2023-02-12T11:17:37.870Z,100158.34
2023-02-12T11:20:20.670Z,100165.66
2023-02-12T11:22:57.300Z,100158.84
2023-02-12T11:25:28.191Z,100174.75
2023-02-12T11:28:15.182Z,100182.84
2023-02-12T11:30:53.529Z,100184.84
2023-02-12T11:33:30.833Z,100180.44
2023-02-12T11:36:01.821Z,100172.00
2023-02-12T11:38:36.172Z,100174.06
2023-02-12T11:41:10.013Z,100175.94
2023-02-12T11:43:40.172Z,100175.16
2023-02-12T11:46:09.969Z,100170.13
2023-02-12T11:48:40.914Z,100170.94
2023-02-12T11:51:18.741Z,100173.66
2023-02-12T11:53:51.241Z,100174.84
2023-02-12T11:56:20.070Z,100169.34
2023-02-12T11:58:49.128Z,100166.66
2023-02-12T12:01:22.457Z,100161.94
2023-02-12T12:03:59.282Z,100156.03
2023-02-12T12:06:37.468Z,100165.47
2023-02-12T12:09:13.275Z,100160.78
2023-02-12T12:11:59.187Z,100167.25
2023-02-12T12:14:31.331Z,100158.72
2023-02-12T12:17:23.391Z,100157.00
2023-02-12T12:19:59.139Z,100159.13
2023-02-12T12:22:43.950Z,100159.69
2023-02-12T12:25:21.671Z,100149.50
2023-02-12T12:28:05.604Z,100139.22
2023-02-12T12:30:42.337Z,100140.56
2023-02-12T12:33:18.419Z,100146.41
2023-02-12T12:35:55.553Z,100145.03
2023-02-12T12:38:39.515Z,100140.56
2023-02-12T12:41:17.375Z,100146.06
2023-02-12T12:43:57.022Z,100150.97
2023-02-12T12:46:41.093Z,100141.47
2023-02-12T12:49:45.435Z,100140.22
2023-02-12T12:52:33.189Z,100127.34
2023-02-12T12:55:24.829Z,100146.41
2023-02-12T12:58:02.571Z,100145.81
2023-02-12T13:00:49.631Z,100146.75
2023-02-12T13:03:54.665Z,100139.38
2023-02-12T13:06:47.487Z,100153.78
2023-02-12T13:09:39.628Z,100142.81
2023-02-12T13:12:32.493Z,100136.72
2023-02-12T13:15:08.308Z,100143.97
2023-02-12T13:17:46.107Z,100153.44
2023-02-12T13:20:21.258Z,100161.66
2023-02-12T13:22:58.624Z,100162.75
2023-02-12T13:25:32.217Z,100152.16
2023-02-12T13:28:03.433Z,100156.94
2023-02-12T13:30:34.887Z,100157.22
2023-02-12T13:33:11.621Z,100150.50
2023-02-12T13:35:44.454Z,100150.75
2023-02-12T13:38:20.174Z,100148.53
2023-02-12T13:40:49.948Z,100154.56
2023-02-12T13:43:35.969Z,100159.16
2023-02-12T13:46:10.291Z,100155.69
2023-02-12T13:48:50.183Z,100160.38
2023-02-12T13:51:29.486Z,100157.41
2023-02-12T13:54:14.722Z,100161.13
2023-02-12T13:56:44.753Z,100164.25
2023-02-12T13:59:42.191Z,100157.81
2023-02-12T14:02:44.933Z,100166.34
2023-02-12T14:05:37.313Z,100157.38
2023-02-12T14:08:08.051Z,100164.81
2023-02-12T14:10:41.545Z,100157.41
2023-02-12T14:13:34.192Z,100161.09
2023-02-12T14:16:21.092Z,100167.09
2023-02-12T14:18:49.307Z,100168.19
2023-02-12T14:21:38.354Z,100167.13
2023-02-12T14:24:52.193Z,100159.72
2023-02-12T14:27:30.583Z,100157.81
2023-02-12T14:30:04.540Z,100157.47
2023-02-12T14:32:58.576Z,100152.84
2023-02-12T14:35:34.222Z,100147.28
2023-02-12T14:38:04.438Z,100155.13
2023-02-12T14:40:44.403Z,100150.91
2023-02-12T14:43:30.043Z,100145.56
2023-02-12T14:46:00.559Z,100152.09
2023-02-12T14:48:51.906Z,100156.69
2023-02-12T14:51:24.273Z,100150.34
2023-02-12T14:53:54.756Z,100142.88
2023-02-12T14:56:24.654Z,100149.34
2023-02-12T14:58:57.121Z,100153.22
2023-02-12T15:01:34.051Z,100161.97
2023-02-12T15:04:15.980Z,100164.94
2023-02-12T15:06:52.643Z,100167.19
2023-02-12T15:09:31.357Z,100171.38
2023-02-12T15:12:08.800Z,100158.91
2023-02-12T15:14:44.328Z,100167.31
2023-02-12T15:17:19.766Z,100168.19
2023-02-12T15:19:53.983Z,100167.53
2023-02-12T15:22:25.876Z,100165.41
2023-02-12T15:24:54.055Z,100169.84
2023-02-12T15:27:22.922Z,100169.31
2023-02-12T15:29:54.503Z,100170.22
2023-02-12T15:32:26.399Z,100166.06
2023-02-12T15:34:55.462Z,100165.47
2023-02-12T15:37:26.678Z,100167.75
2023-02-12T15:39:57.548Z,100179.53
2023-02-12T15:42:28.947Z,100176.69
2023-02-12T15:45:17.392Z,100189.94
2023-02-12T15:47:46.928Z,100184.13
2023-02-12T15:50:16.787Z,100184.22
2023-02-12T15:52:47.640Z,100193.03
2023-02-12T15:55:18.398Z,100190.13
2023-02-12T15:57:51.156Z,100199.13
2023-02-12T16:00:30.711Z,100191.25
2023-02-12T16:02:58.821Z,100194.63
2023-02-12T16:05:27.690Z,100191.78
2023-02-12T16:07:56.545Z,100190.06
2023-02-12T16:10:24.985Z,100189.16
2023-02-12T16:12:53.847Z,100198.22
2023-02-12T16:15:28.932Z,100197.50
2023-02-12T16:17:58.502Z,100203.72
2023-02-12T16:20:29.038Z,100213.41
2023-02-12T16:22:57.769Z,100212.56
2023-02-12T16:25:28.198Z,100205.91
2023-02-12T16:28:00.327Z,100216.13
2023-02-12T16:30:32.914Z,100216.22
2023-02-12T16:33:09.386Z,100227.81
2023-02-12T16:35:43.158Z,100227.88
2023-02-12T16:38:40.370Z,100232.81
2023-02-12T16:41:34.202Z,100244.03
2023-02-12T16:44:26.044Z,100252.47
2023-02-12T16:46:57.906Z,100252.91
2023-02-12T16:49:27.306Z,100248.38
2023-02-12T16:52:27.005Z,100258.38
2023-02-12T16:54:55.123Z,100249.56
2023-02-12T16:57:23.221Z,100238.38
2023-02-12T16:59:51.336Z,100246.75
2023-02-12T17:02:24.621Z,100244.66
2023-02-12T17:05:01.030Z,100242.00
2023-02-12T17:07:31.141Z,100253.00
2023-02-12T17:09:59.327Z,100245.25
2023-02-12T17:12:28.450Z,100243.63
2023-02-12T17:14:56.959Z,100248.28
2023-02-12T17:17:26.394Z,100243.25
2023-02-12T17:19:54.558Z,100263.13
2023-02-12T17:22:25.866Z,100260.03
2023-02-12T17:24:54.831Z,100252.06
2023-02-12T17:27:22.888Z,100266.81
2023-02-12T17:29:51.122Z,100259.03
2023-02-12T17:32:19.314Z,100261.28
2023-02-12T17:34:49.420Z,100262.13
2023-02-12T17:37:18.509Z,100253.94
2023-02-12T17:39:46.632Z,100254.25
2023-02-12T17:42:14.924Z,100244.16
2023-02-12T17:44:42.948Z,100247.00
2023-02-12T17:47:11.229Z,100241.09
2023-02-12T17:49:40.030Z,100249.81
2023-02-12T17:52:09.703Z,100247.59
2023-02-12T17:54:37.953Z,100250.13
2023-02-12T17:57:06.147Z,100241.94
2023-02-12T17:59:34.197Z,100246.16
2023-02-12T18:02:02.871Z,100232.16
2023-02-12T18:04:34.051Z,100232.88
2023-02-12T18:07:02.258Z,100243.41
2023-02-12T18:09:32.026Z,100245.09
2023-02-12T18:12:00.609Z,100243.22
2023-02-12T18:14:28.737Z,100235.03
2023-02-12T18:16:57.087Z,100241.09
2023-02-12T18:19:26.728Z,100249.28
2023-02-12T18:21:54.858Z,100255.91
2023-02-12T18:24:22.934Z,100248.00
2023-02-12T18:26:52.617Z,100244.72
2023-02-12T18:29:20.810Z,100247.84
2023-02-12T18:31:48.973Z,100251.78
2023-02-12T18:34:17.449Z,100246.81
2023-02-12T18:36:45.491Z,100249.16
2023-02-12T18:39:13.582Z,100244.63
2023-02-12T18:41:41.658Z,100237.97
2023-02-12T18:44:11.158Z,100244.72
2023-02-12T18:46:39.444Z,100243.72
2023-02-12T18:49:07.499Z,100235.22
2023-02-12T18:51:39.904Z,100244.44
2023-02-12T18:54:10.171Z,100238.09
2023-02-12T18:56:41.072Z,100238.16
2023-02-12T18:59:13.359Z,100242.16
2023-02-12T19:01:41.820Z,100245.56
2023-02-12T19:04:13.910Z,100246.84
2023-02-12T19:06:46.153Z,100246.47
2023-02-12T19:09:16.752Z,100243.06
2023-02-12T19:11:46.803Z,100238.28
2023-02-12T19:14:18.121Z,100233.22
2023-02-12T19:16:47.106Z,100229.94
2023-02-12T19:19:16.863Z,100238.50
2023-02-12T19:21:45.208Z,100245.22
2023-02-12T19:24:15.339Z,100242.44
2023-02-12T19:26:44.675Z,100238.75
2023-02-12T19:29:13.511Z,100241.88
2023-02-12T19:31:46.416Z,100247.34
2023-02-12T19:34:22.107Z,100233.41
2023-02-12T19:36:57.021Z,100228.00
2023-02-12T19:39:26.690Z,100218.78
2023-02-12T19:41:56.243Z,100218.38
2023-02-12T19:44:25.990Z,100209.50
2023-02-12T19:46:56.603Z,100220.22
2023-02-12T19:49:27.005Z,100215.94
2023-02-12T19:51:55.202Z,100232.13
2023-02-12T19:54:25.254Z,100223.16
2023-02-12T19:56:53.938Z,100227.78
2023-02-12T19:59:24.551Z,100212.41
2023-02-12T20:01:52.629Z,100211.19
2023-02-12T20:04:24.413Z,100213.44
2023-02-12T20:06:52.481Z,100226.34
2023-02-12T20:09:21.538Z,100230.78
2023-02-12T20:11:50.120Z,100230.75
2023-02-12T20:14:20.930Z,100227.91
2023-02-12T20:16:49.908Z,100228.69
2023-02-12T20:19:21.104Z,100225.47
2023-02-12T20:21:54.363Z,100223.56
2023-02-12T20:24:22.851Z,100231.47
2023-02-12T20:26:52.002Z,100233.69
2023-02-12T20:29:20.591Z,100225.97
2023-02-12T20:31:48.977Z,100232.09
2023-02-12T20:34:19.436Z,100233.06
2023-02-12T20:36:48.402Z,100236.41
2023-02-12T20:39:19.600Z,100235.16
2023-02-12T20:41:48.602Z,100239.91
2023-02-12T20:44:20.004Z,100235.69
2023-02-12T20:46:50.107Z,100236.38
2023-02-12T20:49:20.994Z,100231.69
2023-02-12T20:51:50.764Z,100228.69
2023-02-12T20:54:20.227Z,100229.84
2023-02-12T20:56:50.223Z,100229.16
2023-02-12T20:59:18.518Z,100228.41
2023-02-12T21:01:47.025Z,100224.59
2023-02-12T21:04:34.984Z,100230.09
2023-02-12T21:07:03.133Z,100234.38
2023-02-12T21:09:32.658Z,100226.34
2023-02-12T21:12:00.824Z,100225.19
2023-02-12T21:14:28.860Z,100222.03
2023-02-12T21:16:57.676Z,100234.66
2023-02-12T21:19:27.006Z,100233.66
2023-02-12T21:21:55.809Z,100226.31
2023-02-12T21:24:26.007Z,100233.34
2023-02-12T21:26:56.484Z,100229.72
2023-02-12T21:29:26.703Z,100239.59
2023-02-12T21:31:55.338Z,100232.91
2023-02-12T21:34:24.664Z,100237.50
2023-02-12T21:36:55.685Z,100238.75
2023-02-12T21:39:27.239Z,100235.13
2023-02-12T21:42:00.032Z,100236.19
2023-02-12T21:44:28.882Z,100231.66
2023-02-12T21:46:57.377Z,100234.41
2023-02-12T21:49:27.855Z,100235.78
2023-02-12T21:51:57.999Z,100236.00
2023-02-12T21:54:26.207Z,100225.56
2023-02-12T21:56:54.232Z,100225.78
2023-02-12T21:59:24.876Z,100234.13
2023-02-12T22:01:55.340Z,100242.19
2023-02-12T22:04:23.631Z,100235.06
2023-02-12T22:06:54.077Z,100243.38
2023-02-12T22:09:23.914Z,100244.06
2023-02-12T22:11:52.984Z,100244.84
2023-02-12T22:14:23.476Z,100257.09
2023-02-12T22:16:52.013Z,100252.88
2023-02-12T22:19:20.260Z,100256.59
2023-02-12T22:21:51.508Z,100249.63
2023-02-12T22:24:19.976Z,100250.50
2023-02-12T22:26:48.058Z,100241.91
2023-02-12T22:29:17.328Z,100239.84
2023-02-12T22:31:48.028Z,100244.78
2023-02-12T22:34:18.761Z,100254.31
2023-02-12T22:36:48.633Z,100252.66
2023-02-12T22:39:17.672Z,100254.25
2023-02-12T22:41:46.147Z,100252.41
2023-02-12T22:44:15.483Z,100251.66
2023-02-12T22:46:44.318Z,100245.47
2023-02-12T22:49:14.201Z,100243.91
2023-02-12T22:51:42.586Z,100244.03
2023-02-12T22:54:14.829Z,100242.25
2023-02-12T22:56:43.485Z,100247.72
2023-02-12T22:59:12.856Z,100242.19
2023-02-12T23:01:41.205Z,100251.28
2023-02-12T23:04:13.712Z,100249.56
2023-02-12T23:06:43.557Z,100253.63
2023-02-12T23:09:15.066Z,100241.38
2023-02-12T23:11:43.152Z,100239.28
2023-02-12T23:14:11.240Z,100245.25
2023-02-12T23:16:39.748Z,100239.25
2023-02-12T23:19:07.918Z,100233.13
2023-02-12T23:21:35.952Z,100231.31
2023-02-12T23:24:05.598Z,100229.22
2023-02-12T23:26:33.768Z,100228.44
2023-02-12T23:29:01.838Z,100230.41
2023-02-12T23:31:30.143Z,100224.56
2023-02-12T23:33:58.204Z,100220.56
2023-02-12T23:36:26.354Z,100237.84
2023-02-12T23:38:54.412Z,100230.75
2023-02-12T23:41:23.907Z,100228.19
2023-02-12T23:43:52.038Z,100229.94
2023-02-12T23:46:20.106Z,100239.78
2023-02-12T23:48:48.175Z,100239.19
2023-02-12T23:51:16.333Z,100245.88
2023-02-12T23:53:44.397Z,100238.31
2023-02-12T23:56:12.479Z,100235.31
2023-02-12T23:58:42.051Z,100233.69
